Trinidad, CA

3:44 AM PDT on April 28, 2015 (GMT -0700)
Trinidad Village | | Change Station
CLOSE
Current Station
Personal Weather Station
Location: Trinidad, CA
Elevation: 180 ft
Nearby Weather Stations

Elev 180 ft 41.06 °N, 124.14 °W | Updated 27 seconds ago

Overcast
Overcast
49.2 °F
Feels Like 49 °F
N
0.0
Wind Variable Wind from WNW
Gusts 2.0 mph

Today
High -- | Low -- °F
--% Chance of Precip.
Yesterday
High -- | Low -- °F
Precip. -- in
6:18 AM 8:10 PM
Waxing Gibbous, 72% visible
Pressure 30.09 in
Visibility 10.0 miles
Clouds Overcast 900 ft
Windchill 49 °F
Dew Point 48 °F
Humidity 98%
Rainfall 0.00 in
Snow Depth Not available.
UV 0 out of 12
Pollen 8.30 out of 12
Air Quality Not available.
Flu Activity Sporadic
SPECI KACV 281014Z AUTO 12004KT 10SM OVC009 11/11 A3009 RMK AO2 CIG 007V011 T01110106

More Conditions Fewer Conditions

Pressure 30.09 in
Visibility 10.0 miles
Clouds Overcast 900 ft
Windchill 49 °F
Dew Point 48 °F
Humidity 98%
Rainfall 0.00 in
Snow Depth Not available.
UV 0 out of 12
Pollen 8.30 out of 12
Air Quality Not available.
Flu Activity Sporadic
SPECI KACV 281014Z AUTO 12004KT 10SM OVC009 11/11 A3009 RMK AO2 CIG 007V011 T01110106

More Conditions Fewer Conditions

10-Day Weather Forecast

Almanac

Astronomy

Apr. 28, 2015 Rise Set
Actual Time
Civil Twilight
Nautical Twilight
Astronomical Twilight
Moon
Length of Visible Light
Length of Day
Tomorrow will be .
, % of the Moon is Illuminated

Today's Extremes

State Highs State Lows

Community

WunderPhotos

Upload Photos

1,817,603 photos uploaded!

WunderBlogs® & News

Nearby

Air Quality

  Air Quality AQ Index Pollutant
Not available.

Snow Depth

Station Depth Elevation

Earthquake Activity

City Distance Mag. Time & Date
Minimum magnitude displayed is 2.5.

Coastal Water Temperatures

Place Temperature

Stations

Nearby Weather Stations

Station Location Temp. Windchill Dew Point Humidity Wind Precip. Elev Updated Type